Time;durP1;ratioP1;P1;durP2;ratioP2;P2;SDS_P1;SDS_P2;PMS_P1;PMS_P2;Temp;Humidity;BMP_temperature;BMP_pressure;BME280_temperature;BME280_humidity;BME280_pressure;Samples;Min_cycle;Max_cycle;Signal;HPM_P1;HPM_P2
2022/11/22 00:00:10;;;;;;;0.40;0.40;;;5.30;99.90;;;;;;5136591;27;20450;-75
2022/11/22 00:02:36;;;;;;;0.37;0.37;;;5.30;99.90;;;;;;5136551;27;20450;-75
2022/11/22 00:05:04;;;;;;;0.30;0.30;;;5.40;99.90;;;;;;5136452;27;20458;-75
2022/11/22 00:07:32;;;;;;;0.37;0.30;;;5.40;99.90;;;;;;5136416;27;20949;-75
2022/11/22 00:09:59;;;;;;;1.10;0.40;;;5.40;99.90;;;;;;5136099;27;20787;-75
2022/11/22 00:12:25;;;;;;;0.30;0.20;;;5.50;99.90;;;;;;5136034;27;20445;-75
2022/11/22 00:14:52;;;;;;;0.30;0.30;;;5.50;99.90;;;;;;5136361;27;20463;-75
2022/11/22 00:17:19;;;;;;;1.07;0.40;;;5.50;99.90;;;;;;5136158;27;20454;-75
2022/11/22 00:19:45;;;;;;;0.30;0.30;;;5.40;99.90;;;;;;5135964;27;20855;-76
2022/11/22 00:22:12;;;;;;;0.30;0.30;;;5.40;99.90;;;;;;5135835;27;20446;-76
2022/11/22 00:24:40;;;;;;;0.30;0.30;;;5.50;99.90;;;;;;5136042;27;20454;-75
2022/11/22 00:27:07;;;;;;;0.30;0.30;;;5.50;99.90;;;;;;5136229;27;20439;-75
2022/11/22 00:29:34;;;;;;;1.90;0.40;;;5.40;99.90;;;;;;5136029;27;20438;-76
2022/11/22 00:32:01;;;;;;;1.00;0.50;;;5.40;99.90;;;;;;5135961;27;20443;-75
2022/11/22 00:34:27;;;;;;;0.50;0.40;;;5.40;99.90;;;;;;5135519;27;20837;-76
2022/11/22 00:36:54;;;;;;;0.40;0.30;;;5.50;99.90;;;;;;5135560;27;20815;-76
2022/11/22 00:39:21;;;;;;;0.30;0.30;;;5.50;99.90;;;;;;5135473;27;20985;-76
2022/11/22 00:41:49;;;;;;;0.30;0.30;;;5.50;99.90;;;;;;5134813;27;20457;-75
2022/11/22 00:44:16;;;;;;;0.40;0.30;;;5.50;99.90;;;;;;5135642;27;20835;-76
2022/11/22 00:46:42;;;;;;;0.87;0.33;;;5.50;99.90;;;;;;5136503;27;20791;-76
2022/11/22 00:49:09;;;;;;;0.30;0.30;;;5.50;99.90;;;;;;5135620;27;20434;-76
2022/11/22 00:51:36;;;;;;;0.30;0.20;;;5.50;99.90;;;;;;5135794;27;20442;-76
2022/11/22 00:54:03;;;;;;;0.30;0.30;;;5.50;99.90;;;;;;5135442;27;20470;-75
2022/11/22 00:56:30;;;;;;;0.30;0.30;;;5.60;99.90;;;;;;5135175;27;20958;-76
2022/11/22 00:58:59;;;;;;;0.30;0.30;;;5.60;99.90;;;;;;5135310;27;20474;-76
2022/11/22 01:01:25;;;;;;;0.40;0.30;;;5.60;99.90;;;;;;5135336;27;20450;-75
2022/11/22 01:03:52;;;;;;;0.40;0.30;;;5.60;99.90;;;;;;5134960;27;20470;-75
2022/11/22 01:06:19;;;;;;;0.30;0.30;;;5.60;99.90;;;;;;5135302;27;20446;-76
2022/11/22 01:08:47;;;;;;;0.50;0.50;;;5.60;99.90;;;;;;5135256;27;20446;-76
2022/11/22 01:11:15;;;;;;;0.33;0.30;;;5.60;99.90;;;;;;5135170;27;20496;-76
2022/11/22 01:13:42;;;;;;;0.43;0.43;;;5.60;99.90;;;;;;5135050;27;20459;-76
2022/11/22 01:16:11;;;;;;;1.07;0.40;;;5.60;99.90;;;;;;5135096;27;20438;-76
2022/11/22 01:18:38;;;;;;;0.30;0.30;;;5.60;99.90;;;;;;5134606;27;20977;-76
2022/11/22 01:21:05;;;;;;;0.30;0.30;;;5.60;99.90;;;;;;5135027;27;20424;-76
2022/11/22 01:23:32;;;;;;;0.47;0.30;;;5.60;99.90;;;;;;5134931;27;20519;-76
2022/11/22 01:25:58;;;;;;;0.30;0.30;;;5.70;99.90;;;;;;5134931;27;20457;-76
2022/11/22 01:28:25;;;;;;;0.40;0.30;;;5.70;99.90;;;;;;5134893;27;20461;-76
2022/11/22 01:30:53;;;;;;;0.30;0.30;;;5.70;99.90;;;;;;5134872;27;20843;-76
2022/11/22 01:33:21;;;;;;;0.30;0.30;;;5.70;99.90;;;;;;5134708;27;20455;-76
2022/11/22 01:35:48;;;;;;;0.67;0.57;;;5.60;99.90;;;;;;5134675;27;20953;-76
2022/11/22 01:38:15;;;;;;;0.30;0.27;;;5.70;99.90;;;;;;5134642;27;20475;-76
2022/11/22 01:40:42;;;;;;;0.40;0.40;;;5.70;99.90;;;;;;5134668;27;20450;-76
2022/11/22 01:43:16;;;;;;;0.50;0.50;;;5.70;99.90;;;;;;5134265;27;20968;-76
2022/11/22 01:45:52;;;;;;;0.30;0.30;;;5.70;99.90;;;;;;5135247;27;20475;-76
2022/11/22 01:48:32;;;;;;;0.30;0.30;;;5.80;99.90;;;;;;5134313;27;20928;-76
2022/11/22 01:51:05;;;;;;;0.30;0.27;;;5.80;99.90;;;;;;5135148;27;20431;-76
2022/11/22 01:53:34;;;;;;;3.90;0.40;;;5.80;99.90;;;;;;5133539;27;20485;-76
2022/11/22 01:56:03;;;;;;;1.03;0.93;;;5.80;99.90;;;;;;5134535;27;20439;-76
2022/11/22 01:58:33;;;;;;;1.23;0.50;;;5.70;99.90;;;;;;5134370;27;20482;-76
2022/11/22 02:01:01;;;;;;;0.47;0.47;;;5.70;99.90;;;;;;5134416;27;20438;-76
2022/11/22 02:03:31;;;;;;;0.37;0.33;;;5.70;99.90;;;;;;5134314;27;20466;-76
2022/11/22 02:05:59;;;;;;;0.67;0.40;;;5.70;99.90;;;;;;5134116;27;20918;-76
2022/11/22 02:08:31;;;;;;;0.30;0.30;;;5.70;99.90;;;;;;5134379;27;20465;-76
2022/11/22 02:11:01;;;;;;;0.60;0.50;;;5.80;99.90;;;;;;5134363;27;20438;-76
2022/11/22 02:13:29;;;;;;;0.47;0.47;;;5.80;99.90;;;;;;5133958;27;20999;-76
2022/11/22 02:15:56;;;;;;;0.50;0.30;;;5.80;99.90;;;;;;5133990;27;20458;-76
2022/11/22 02:18:22;;;;;;;0.30;0.30;;;5.80;99.90;;;;;;5134192;27;20474;-76
2022/11/22 02:20:51;;;;;;;2.73;2.60;;;5.80;99.90;;;;;;5133999;27;20985;-75
2022/11/22 02:23:24;;;;;;;0.60;0.30;;;5.90;99.90;;;;;;5134150;27;20446;-76
2022/11/22 02:25:57;;;;;;;0.30;0.20;;;5.90;99.90;;;;;;5134273;27;20427;-75
2022/11/22 02:28:26;;;;;;;0.50;0.50;;;5.90;99.90;;;;;;5134169;27;20446;-75
2022/11/22 02:30:53;;;;;;;2.20;0.77;;;5.90;99.90;;;;;;5134171;27;20450;-75
2022/11/22 02:33:19;;;;;;;0.40;0.40;;;5.90;99.90;;;;;;5134062;27;20459;-76
2022/11/22 02:35:47;;;;;;;0.50;0.33;;;5.90;99.90;;;;;;5134112;27;20443;-76
2022/11/22 02:38:17;;;;;;;1.40;0.47;;;5.90;99.90;;;;;;5134012;27;20443;-76
2022/11/22 02:40:50;;;;;;;0.30;0.30;;;6.00;99.90;;;;;;5134069;27;20458;-75
2022/11/22 02:43:20;;;;;;;0.60;0.60;;;5.90;99.90;;;;;;5133962;27;20423;-76
2022/11/22 02:45:47;;;;;;;0.40;0.40;;;5.90;99.90;;;;;;5133991;27;20432;-75
2022/11/22 02:48:16;;;;;;;0.50;0.37;;;5.80;99.90;;;;;;5134057;27;20434;-75
2022/11/22 02:50:43;;;;;;;0.30;0.30;;;5.80;99.90;;;;;;5133971;27;20470;-75
2022/11/22 02:53:11;;;;;;;3.33;0.57;;;5.80;99.90;;;;;;5133884;27;20446;-76
2022/11/22 02:55:38;;;;;;;0.40;0.30;;;5.80;99.90;;;;;;5133638;27;20450;-76
2022/11/22 02:58:05;;;;;;;0.30;0.30;;;5.80;99.90;;;;;;5133851;27;20443;-76
2022/11/22 03:00:34;;;;;;;0.40;0.33;;;5.70;99.90;;;;;;5133893;27;20438;-76
2022/11/22 03:03:01;;;;;;;0.30;0.30;;;5.70;99.90;;;;;;5134031;27;20445;-76
2022/11/22 03:05:28;;;;;;;0.40;0.30;;;5.60;99.90;;;;;;5136859;27;20451;-76
2022/11/22 03:07:55;;;;;;;0.40;0.30;;;5.70;99.90;;;;;;5137618;27;20449;-76
2022/11/22 03:10:22;;;;;;;1.27;0.50;;;5.70;99.90;;;;;;5137553;27;20461;-76
2022/11/22 03:12:48;;;;;;;0.30;0.30;;;5.70;99.90;;;;;;5137551;27;20491;-76
2022/11/22 03:15:15;;;;;;;0.40;0.30;;;5.70;99.90;;;;;;5137346;27;20463;-76
2022/11/22 03:17:43;;;;;;;0.50;0.50;;;5.70;99.90;;;;;;5137384;27;20450;-76
2022/11/22 03:20:10;;;;;;;0.33;0.30;;;5.70;99.90;;;;;;5136963;27;20563;-76
2022/11/22 03:22:37;;;;;;;0.33;0.33;;;5.80;99.90;;;;;;5137026;27;20948;-75
2022/11/22 03:25:05;;;;;;;0.30;0.30;;;5.80;99.90;;;;;;5137501;27;20463;-76
2022/11/22 03:27:31;;;;;;;0.30;0.30;;;5.80;99.90;;;;;;5137232;27;20439;-75
2022/11/22 03:29:58;;;;;;;0.40;0.40;;;5.80;99.90;;;;;;5137191;27;20446;-76
2022/11/22 03:32:25;;;;;;;5.33;0.70;;;5.80;99.90;;;;;;5136822;27;20825;-75
2022/11/22 03:34:53;;;;;;;0.30;0.30;;;5.80;99.90;;;;;;5136686;27;20838;-76
2022/11/22 03:37:20;;;;;;;0.30;0.20;;;5.80;99.90;;;;;;5137031;27;20447;-75
2022/11/22 03:39:46;;;;;;;0.30;0.30;;;5.80;99.90;;;;;;5136603;27;20474;-76
2022/11/22 03:42:13;;;;;;;0.40;0.30;;;5.80;99.90;;;;;;5136640;27;20933;-76
2022/11/22 03:44:40;;;;;;;0.30;0.30;;;5.80;99.90;;;;;;5136814;27;20462;-75
2022/11/22 03:47:07;;;;;;;0.30;0.30;;;5.80;99.90;;;;;;5136875;27;20443;-76
2022/11/22 03:49:33;;;;;;;0.30;0.20;;;5.80;99.90;;;;;;5136808;27;20442;-75
2022/11/22 03:52:01;;;;;;;0.40;0.40;;;5.80;99.90;;;;;;5136984;27;20438;-76
2022/11/22 03:54:28;;;;;;;0.30;0.30;;;5.80;99.90;;;;;;5136658;27;20459;-75
2022/11/22 03:56:55;;;;;;;0.30;0.30;;;5.80;99.90;;;;;;5136689;27;20442;-76
2022/11/22 03:59:22;;;;;;;0.30;0.30;;;5.80;99.90;;;;;;5136555;27;20478;-76
2022/11/22 04:01:48;;;;;;;0.30;0.30;;;5.70;99.90;;;;;;5136578;27;20928;-76
2022/11/22 04:04:15;;;;;;;0.30;0.20;;;5.70;99.90;;;;;;5136469;27;20459;-76
2022/11/22 04:06:42;;;;;;;0.30;0.30;;;5.70;99.90;;;;;;5136478;27;20439;-76
2022/11/22 04:09:10;;;;;;;0.30;0.30;;;5.70;99.90;;;;;;5136444;27;20439;-76
2022/11/22 04:11:37;;;;;;;0.40;0.30;;;5.70;99.90;;;;;;5136379;27;20476;-76
2022/11/22 04:16:48;;;;;;;0.33;0.33;;;5.60;99.90;;;;;;5135099;27;20472;-76
2022/11/22 04:19:15;;;;;;;0.83;0.60;;;5.60;99.90;;;;;;5135968;27;20997;-76
2022/11/22 04:21:40;;;;;;;0.30;0.30;;;5.60;99.90;;;;;;5135875;27;20446;-76
2022/11/22 04:26:54;;;;;;;0.80;0.80;;;5.60;99.90;;;;;;5136076;27;20193;-76
2022/11/22 04:29:21;;;;;;;0.50;0.50;;;5.50;99.90;;;;;;5136039;27;20536;-76
2022/11/22 04:34:34;;;;;;;0.40;0.30;;;5.50;99.90;;;;;;5136085;27;20441;-77
2022/11/22 04:37:01;;;;;;;0.40;0.33;;;5.40;99.90;;;;;;5135896;27;20458;-77
2022/11/22 04:39:29;;;;;;;0.30;0.20;;;5.40;99.90;;;;;;5135710;27;20481;-77
2022/11/22 04:44:40;;;;;;;0.30;0.20;;;5.30;99.90;;;;;;5135323;27;20991;-77
2022/11/22 04:47:07;;;;;;;0.30;0.30;;;5.30;99.90;;;;;;5135703;27;20439;-76
2022/11/22 04:49:34;;;;;;;0.30;0.30;;;5.30;99.90;;;;;;5135625;27;20446;-76
2022/11/22 04:54:46;;;;;;;0.30;0.20;;;5.10;99.90;;;;;;5135361;27;20479;-77
2022/11/22 04:57:12;;;;;;;0.80;0.50;;;5.10;99.90;;;;;;5135562;27;20423;-76
2022/11/22 04:59:39;;;;;;;0.30;0.30;;;5.10;99.90;;;;;;5135386;27;20482;-77
2022/11/22 05:02:06;;;;;;;0.50;0.50;;;5.00;99.90;;;;;;5135050;27;20458;-76
2022/11/22 05:04:33;;;;;;;0.67;0.30;;;5.00;99.90;;;;;;5135235;27;20470;-76
2022/11/22 05:07:00;;;;;;;0.30;0.30;;;5.00;99.90;;;;;;5135311;27;20450;-77
2022/11/22 05:09:26;;;;;;;0.30;0.30;;;5.00;99.90;;;;;;5135227;27;20438;-76
2022/11/22 05:11:54;;;;;;;0.30;0.30;;;4.90;99.90;;;;;;5135232;27;20430;-76
2022/11/22 05:14:21;;;;;;;0.30;0.30;;;4.90;99.90;;;;;;5134795;27;20981;-76
2022/11/22 05:16:48;;;;;;;0.30;0.20;;;4.90;99.90;;;;;;5134795;27;20945;-76
2022/11/22 05:19:15;;;;;;;0.30;0.30;;;5.00;99.90;;;;;;5134829;27;20491;-76
2022/11/22 05:21:41;;;;;;;0.40;0.40;;;5.00;99.90;;;;;;5135016;27;20447;-77
2022/11/22 05:24:08;;;;;;;0.30;0.20;;;5.10;99.90;;;;;;5134959;27;20549;-76
2022/11/22 05:26:36;;;;;;;0.30;0.30;;;5.10;99.90;;;;;;5134743;27;20442;-76
2022/11/22 05:29:07;;;;;;;0.30;0.30;;;5.20;99.90;;;;;;5134904;27;20439;-77
2022/11/22 05:31:34;;;;;;;0.30;0.30;;;5.30;99.90;;;;;;5134858;27;20451;-77
2022/11/22 05:34:01;;;;;;;0.40;0.30;;;5.30;99.90;;;;;;5134760;27;20463;-76
2022/11/22 05:36:30;;;;;;;0.30;0.30;;;5.30;99.90;;;;;;5134447;27;20442;-77
2022/11/22 05:38:57;;;;;;;0.30;0.20;;;5.40;99.90;;;;;;5134676;27;20517;-76
2022/11/22 05:41:24;;;;;;;0.30;0.30;;;5.40;99.90;;;;;;5134416;27;20949;-76
2022/11/22 05:43:53;;;;;;;0.30;0.27;;;5.40;99.90;;;;;;5134567;27;20467;-76
2022/11/22 05:46:22;;;;;;;1.70;0.50;;;5.30;99.90;;;;;;5134653;27;20447;-77
2022/11/22 05:48:49;;;;;;;0.40;0.40;;;5.40;99.90;;;;;;5134574;27;20443;-77
2022/11/22 05:51:17;;;;;;;0.30;0.30;;;5.30;99.90;;;;;;5134585;27;20442;-77
2022/11/22 05:53:45;;;;;;;0.30;0.20;;;5.30;99.90;;;;;;5134503;27;20455;-77
2022/11/22 05:56:13;;;;;;;0.40;0.30;;;5.40;99.90;;;;;;5134213;27;20942;-76
2022/11/22 05:58:41;;;;;;;0.30;0.30;;;5.30;99.90;;;;;;5134861;27;20443;-76
2022/11/22 06:01:09;;;;;;;0.30;0.20;;;5.30;99.90;;;;;;5134371;27;20510;-76
2022/11/22 06:03:37;;;;;;;0.40;0.30;;;5.40;99.90;;;;;;5133948;27;20838;-77
2022/11/22 06:06:06;;;;;;;0.30;0.20;;;5.40;99.90;;;;;;5134400;27;20447;-76
2022/11/22 06:08:34;;;;;;;0.40;0.30;;;5.40;99.90;;;;;;5134354;27;20454;-77
2022/11/22 06:11:04;;;;;;;0.30;0.30;;;5.40;99.90;;;;;;5134057;27;20930;-77
2022/11/22 06:13:33;;;;;;;0.30;0.30;;;5.40;99.90;;;;;;5133975;27;20459;-77
2022/11/22 06:16:00;;;;;;;0.60;0.60;;;5.40;99.90;;;;;;5134240;27;20953;-77
2022/11/22 06:18:27;;;;;;;0.30;0.20;;;5.40;99.90;;;;;;5134403;27;20459;-77
2022/11/22 06:20:58;;;;;;;0.30;0.30;;;5.40;99.90;;;;;;5134227;27;20482;-77
2022/11/22 06:23:25;;;;;;;0.30;0.30;;;5.40;99.90;;;;;;5134296;27;20474;-76
2022/11/22 06:25:57;;;;;;;0.40;0.30;;;5.40;99.90;;;;;;5134214;27;20454;-76
2022/11/22 06:28:24;;;;;;;0.30;0.20;;;5.40;99.90;;;;;;5134241;27;20431;-76
2022/11/22 06:30:50;;;;;;;0.40;0.40;;;5.40;99.90;;;;;;5134160;27;20454;-77
2022/11/22 06:33:17;;;;;;;0.30;0.20;;;5.40;99.90;;;;;;5134078;27;20453;-76
2022/11/22 06:35:44;;;;;;;0.30;0.30;;;5.40;99.90;;;;;;5134125;27;20446;-76
2022/11/22 06:38:12;;;;;;;0.30;0.20;;;5.40;99.90;;;;;;5133848;27;20447;-76
2022/11/22 06:40:39;;;;;;;0.30;0.30;;;5.40;99.90;;;;;;5137568;27;20478;-76
2022/11/22 06:43:06;;;;;;;0.30;0.27;;;5.40;99.90;;;;;;5138020;27;20794;-76
2022/11/22 06:45:33;;;;;;;1.17;1.17;;;5.40;99.90;;;;;;5138061;27;20453;-76
2022/11/22 06:47:59;;;;;;;0.30;0.20;;;5.40;99.90;;;;;;5137996;27;20439;-76
2022/11/22 06:50:26;;;;;;;0.30;0.30;;;5.40;99.90;;;;;;5138152;27;20442;-76
2022/11/22 06:52:53;;;;;;;0.30;0.20;;;5.40;99.90;;;;;;5137916;27;20446;-76
2022/11/22 06:55:21;;;;;;;0.30;0.30;;;5.50;99.90;;;;;;5137790;27;20467;-76
2022/11/22 06:57:49;;;;;;;0.30;0.20;;;5.40;99.90;;;;;;5137838;27;20818;-76
2022/11/22 07:00:17;;;;;;;0.30;0.30;;;5.40;99.90;;;;;;5137708;27;20482;-76
2022/11/22 07:02:44;;;;;;;0.30;0.30;;;5.40;99.90;;;;;;5137659;27;20447;-76
2022/11/22 07:05:10;;;;;;;0.30;0.20;;;5.50;99.90;;;;;;5137285;27;21027;-76
2022/11/22 07:07:37;;;;;;;0.30;0.30;;;5.50;99.90;;;;;;5137788;27;20446;-76
2022/11/22 07:10:04;;;;;;;0.30;0.20;;;5.50;99.90;;;;;;5137709;27;20439;-77
2022/11/22 07:12:32;;;;;;;0.30;0.30;;;5.50;99.90;;;;;;5137467;27;20426;-76
2022/11/22 07:14:59;;;;;;;0.40;0.30;;;5.60;99.90;;;;;;5137329;27;20574;-76
2022/11/22 07:17:26;;;;;;;0.40;0.30;;;5.60;99.90;;;;;;5137475;27;20443;-77
2022/11/22 07:19:53;;;;;;;0.30;0.20;;;5.60;99.90;;;;;;5136909;27;20490;-76
2022/11/22 07:22:19;;;;;;;4.87;0.50;;;5.60;99.90;;;;;;5137552;27;20438;-76
2022/11/22 07:24:46;;;;;;;0.37;0.33;;;5.60;99.90;;;;;;5137316;27;20466;-77
2022/11/22 07:27:13;;;;;;;0.33;0.33;;;5.60;99.90;;;;;;5136939;27;20537;-76
2022/11/22 07:29:41;;;;;;;4.40;1.07;;;5.60;99.90;;;;;;5137137;27;20441;-76
2022/11/22 07:32:08;;;;;;;0.30;0.27;;;5.70;99.90;;;;;;5136873;27;20814;-76
2022/11/22 07:34:35;;;;;;;0.30;0.30;;;5.70;99.90;;;;;;5136784;27;20474;-76
2022/11/22 07:37:01;;;;;;;0.30;0.20;;;5.80;99.90;;;;;;5137003;27;20460;-76
2022/11/22 07:39:28;;;;;;;0.40;0.30;;;5.70;99.90;;;;;;5136971;27;20447;-77
2022/11/22 07:41:55;;;;;;;0.30;0.20;;;5.80;99.90;;;;;;5136947;27;20439;-78
2022/11/22 07:44:22;;;;;;;0.30;0.30;;;5.80;99.90;;;;;;5136852;27;20559;-78
2022/11/22 07:46:51;;;;;;;0.30;0.30;;;5.80;99.90;;;;;;5136928;27;20503;-78
2022/11/22 07:49:18;;;;;;;0.30;0.30;;;5.80;99.90;;;;;;5137489;27;20442;-78
2022/11/22 07:51:45;;;;;;;0.90;0.43;;;5.90;99.90;;;;;;5136491;27;20937;-78
2022/11/22 07:54:12;;;;;;;0.50;0.50;;;5.90;99.90;;;;;;5136747;27;20463;-78
2022/11/22 07:56:38;;;;;;;0.30;0.30;;;5.80;99.90;;;;;;5136716;27;20451;-78
2022/11/22 07:59:05;;;;;;;1.23;0.60;;;5.80;99.90;;;;;;5136714;27;20445;-78
2022/11/22 08:01:32;;;;;;;0.30;0.30;;;5.80;99.90;;;;;;5136572;27;20483;-78
2022/11/22 08:04:00;;;;;;;0.30;0.30;;;5.80;99.90;;;;;;5136508;27;20462;-78
2022/11/22 08:06:27;;;;;;;0.40;0.30;;;5.90;99.90;;;;;;5136170;27;20969;-78
2022/11/22 08:08:54;;;;;;;0.40;0.30;;;5.80;99.90;;;;;;5136531;27;20435;-78
2022/11/22 08:11:20;;;;;;;0.30;0.30;;;5.80;99.90;;;;;;5136138;27;20434;-78
2022/11/22 08:13:47;;;;;;;0.30;0.20;;;5.90;99.90;;;;;;5136244;27;20467;-78
2022/11/22 08:16:16;;;;;;;0.50;0.40;;;6.00;99.90;;;;;;5136317;27;20442;-78
2022/11/22 08:18:47;;;;;;;0.30;0.30;;;6.00;99.90;;;;;;5135793;27;20447;-78
2022/11/22 08:21:17;;;;;;;0.60;0.60;;;6.00;99.90;;;;;;5135928;27;21029;-78
2022/11/22 08:23:46;;;;;;;0.50;0.30;;;6.00;99.90;;;;;;5136122;27;20467;-78
2022/11/22 08:26:14;;;;;;;0.40;0.30;;;6.00;99.90;;;;;;5136149;27;20439;-78
2022/11/22 08:28:41;;;;;;;0.40;0.30;;;6.10;99.90;;;;;;5136045;27;20461;-78
2022/11/22 08:31:11;;;;;;;0.30;0.30;;;6.10;99.90;;;;;;5136022;27;20430;-78
2022/11/22 08:33:38;;;;;;;0.40;0.30;;;6.10;99.90;;;;;;5135890;27;20467;-78
2022/11/22 08:36:06;;;;;;;0.60;0.30;;;6.10;99.90;;;;;;5135948;27;20454;-78
2022/11/22 08:38:34;;;;;;;0.70;0.70;;;6.10;99.90;;;;;;5135891;27;20465;-78
2022/11/22 08:41:02;;;;;;;0.30;0.30;;;6.20;99.90;;;;;;5135792;27;20934;-79
2022/11/22 08:43:29;;;;;;;0.30;0.30;;;6.30;99.90;;;;;;5135691;27;20547;-78
2022/11/22 08:45:57;;;;;;;4.37;0.53;;;6.30;99.90;;;;;;5135686;27;20443;-78
2022/11/22 08:48:25;;;;;;;0.30;0.30;;;6.30;99.90;;;;;;5135651;27;20439;-78
2022/11/22 08:50:52;;;;;;;1.70;1.60;;;6.30;99.90;;;;;;5135602;27;20439;-78
2022/11/22 08:53:19;;;;;;;0.30;0.20;;;6.40;99.90;;;;;;5135547;27;20809;-78
2022/11/22 08:55:47;;;;;;;0.40;0.40;;;6.30;99.90;;;;;;5135288;27;20965;-78
2022/11/22 08:58:13;;;;;;;0.40;0.30;;;6.40;99.90;;;;;;5135465;27;20782;-78
2022/11/22 09:00:40;;;;;;;0.33;0.33;;;6.40;99.90;;;;;;5135394;27;20470;-78
2022/11/22 09:03:07;;;;;;;0.40;0.30;;;6.60;99.90;;;;;;5135614;27;20442;-78
2022/11/22 09:05:34;;;;;;;0.40;0.40;;;6.60;99.90;;;;;;5135321;27;20450;-78
2022/11/22 09:08:01;;;;;;;0.30;0.30;;;6.70;99.90;;;;;;5135304;27;20439;-78
2022/11/22 09:10:28;;;;;;;0.30;0.30;;;6.80;99.90;;;;;;5135312;27;20447;-78
2022/11/22 09:12:56;;;;;;;0.30;0.30;;;6.80;99.90;;;;;;5135204;27;20447;-78
2022/11/22 09:15:22;;;;;;;1.07;0.43;;;6.90;99.90;;;;;;5135310;27;20462;-78
2022/11/22 09:17:49;;;;;;;0.30;0.30;;;6.90;99.90;;;;;;5134787;27;20833;-78
2022/11/22 09:20:16;;;;;;;0.30;0.30;;;7.00;99.90;;;;;;5134765;27;20491;-78
2022/11/22 09:22:43;;;;;;;0.30;0.30;;;7.10;99.90;;;;;;5135025;27;20449;-78
2022/11/22 09:25:10;;;;;;;0.37;0.30;;;7.20;99.90;;;;;;5135025;27;20800;-78
2022/11/22 09:27:37;;;;;;;0.30;0.30;;;7.30;99.90;;;;;;5134991;27;20443;-78
2022/11/22 09:30:06;;;;;;;0.40;0.30;;;7.30;99.90;;;;;;5134859;27;20952;-78
2022/11/22 09:32:33;;;;;;;0.30;0.30;;;7.30;99.90;;;;;;5134913;27;20443;-78
2022/11/22 09:34:59;;;;;;;0.30;0.30;;;7.20;99.90;;;;;;5134848;27;20463;-78
2022/11/22 09:37:26;;;;;;;0.83;0.40;;;7.30;99.90;;;;;;5134775;27;20453;-78
2022/11/22 09:39:53;;;;;;;0.40;0.30;;;7.40;99.90;;;;;;5134409;27;20938;-78
2022/11/22 09:42:51;;;;;;;0.30;0.30;;;7.40;99.90;;;;;;5134748;27;20446;-78
2022/11/22 09:45:52;;;;;;;0.30;0.30;;;7.50;99.90;;;;;;5134367;27;20471;-78
2022/11/22 09:48:30;;;;;;;0.50;0.37;;;7.50;99.90;;;;;;5134718;27;20442;-78
2022/11/22 09:51:03;;;;;;;0.30;0.27;;;7.50;99.90;;;;;;5134676;27;20426;-78
2022/11/22 09:53:36;;;;;;;0.30;0.30;;;7.60;99.90;;;;;;5134249;27;21046;-78
2022/11/22 09:56:09;;;;;;;0.30;0.30;;;7.60;99.90;;;;;;5134536;27;20438;-78
2022/11/22 09:58:40;;;;;;;0.50;0.30;;;7.60;99.90;;;;;;5134794;27;20427;-78
2022/11/22 10:01:13;;;;;;;0.30;0.20;;;7.50;99.90;;;;;;5134430;27;20467;-78
2022/11/22 10:03:47;;;;;;;0.40;0.30;;;7.50;99.90;;;;;;5134364;27;20474;-78
2022/11/22 10:06:19;;;;;;;0.30;0.30;;;7.50;99.90;;;;;;5134443;27;20438;-78
2022/11/22 10:08:56;;;;;;;0.30;0.20;;;7.50;99.90;;;;;;5134445;27;20427;-78
2022/11/22 10:11:38;;;;;;;0.30;0.30;;;7.50;99.90;;;;;;5134425;27;20452;-78
2022/11/22 10:14:12;;;;;;;0.40;0.40;;;7.50;99.90;;;;;;5135249;27;20469;-78
2022/11/22 10:16:46;;;;;;;0.30;0.30;;;7.50;99.90;;;;;;5138748;27;20423;-78
2022/11/22 10:19:16;;;;;;;0.30;0.30;;;7.40;99.90;;;;;;5138304;27;20480;-78
2022/11/22 10:21:45;;;;;;;0.30;0.20;;;7.30;99.90;;;;;;5138176;27;20997;-78
2022/11/22 10:24:15;;;;;;;0.30;0.30;;;7.20;99.90;;;;;;5138202;27;21084;-78
2022/11/22 10:26:43;;;;;;;0.30;0.20;;;7.20;99.90;;;;;;5138466;27;20451;-78
2022/11/22 10:29:22;;;;;;;0.30;0.20;;;7.10;99.90;;;;;;5138469;27;20449;-78
2022/11/22 10:31:59;;;;;;;0.30;0.30;;;7.00;99.90;;;;;;5138465;27;20427;-79
2022/11/22 10:34:37;;;;;;;0.30;0.30;;;7.10;99.90;;;;;;5138552;27;20469;-78
2022/11/22 10:37:10;;;;;;;0.40;0.30;;;7.10;99.90;;;;;;5138557;27;20461;-78
2022/11/22 10:39:56;;;;;;;0.30;0.30;;;7.30;99.90;;;;;;5138303;27;20439;-78
2022/11/22 10:42:34;;;;;;;0.37;0.27;;;7.30;99.90;;;;;;5137842;27;20469;-78
2022/11/22 10:45:09;;;;;;;0.40;0.40;;;7.40;99.90;;;;;;5138155;27;20462;-78
2022/11/22 10:47:49;;;;;;;0.30;0.30;;;7.50;99.90;;;;;;5137241;27;20427;-78
2022/11/22 10:50:22;;;;;;;2.57;0.30;;;7.50;99.90;;;;;;5137778;27;20918;-78
2022/11/22 10:52:58;;;;;;;0.50;0.47;;;7.60;99.90;;;;;;5137967;27;20429;-78
2022/11/22 10:55:41;;;;;;;0.30;0.30;;;7.60;99.90;;;;;;5137598;27;20976;-78
2022/11/22 10:58:17;;;;;;;0.30;0.30;;;7.60;99.90;;;;;;5137911;27;20438;-78
2022/11/22 11:00:46;;;;;;;0.30;0.20;;;7.60;99.90;;;;;;5137707;27;20462;-78
2022/11/22 11:03:25;;;;;;;0.30;0.20;;;7.50;99.90;;;;;;5137383;27;20983;-78
2022/11/22 11:05:58;;;;;;;0.30;0.20;;;7.40;99.90;;;;;;5137784;27;20434;-78
2022/11/22 11:08:34;;;;;;;0.30;0.30;;;7.40;99.90;;;;;;5137731;27;20431;-78
2022/11/22 11:11:01;;;;;;;0.30;0.30;;;7.60;99.90;;;;;;5137366;27;20909;-78
2022/11/22 11:13:33;;;;;;;0.30;0.30;;;7.70;99.90;;;;;;5137814;27;20469;-78
2022/11/22 11:16:03;;;;;;;0.50;0.30;;;7.60;99.90;;;;;;5137629;27;20427;-78
2022/11/22 11:18:38;;;;;;;0.40;0.30;;;7.60;99.90;;;;;;5137368;27;20434;-78
2022/11/22 11:21:06;;;;;;;0.83;0.83;;;7.60;99.90;;;;;;5137114;27;20458;-78
2022/11/22 11:23:34;;;;;;;0.30;0.20;;;7.60;99.90;;;;;;5137340;27;20467;-78
2022/11/22 11:26:20;;;;;;;0.30;0.30;;;7.70;99.90;;;;;;5136555;27;20452;-78
2022/11/22 11:28:47;;;;;;;0.40;0.30;;;7.70;99.90;;;;;;5137305;27;20423;-78
2022/11/22 11:31:17;;;;;;;0.30;0.30;;;7.80;99.90;;;;;;5137495;27;20430;-78
2022/11/22 11:33:46;;;;;;;0.30;0.30;;;7.70;99.90;;;;;;5136868;27;20462;-77
2022/11/22 11:36:16;;;;;;;0.30;0.20;;;7.70;99.90;;;;;;5137139;27;20467;-78
2022/11/22 11:38:53;;;;;;;0.30;0.20;;;7.70;99.90;;;;;;5136858;27;20435;-78
2022/11/22 11:41:26;;;;;;;0.30;0.20;;;7.70;99.90;;;;;;5137902;27;20809;-78
2022/11/22 11:43:54;;;;;;;0.30;0.30;;;7.80;99.90;;;;;;5136894;27;20459;-79
2022/11/22 11:46:22;;;;;;;0.30;0.30;;;7.80;99.90;;;;;;5137000;27;20438;-78
2022/11/22 11:48:51;;;;;;;0.30;0.20;;;7.80;99.90;;;;;;5136922;27;20466;-78
2022/11/22 11:51:22;;;;;;;0.40;0.30;;;7.80;99.90;;;;;;5136554;27;20925;-78
2022/11/22 11:53:57;;;;;;;0.37;0.30;;;7.90;99.90;;;;;;5136803;27;20481;-78
2022/11/22 11:56:32;;;;;;;0.30;0.27;;;7.90;99.90;;;;;;5136825;27;20426;-78
2022/11/22 11:59:03;;;;;;;0.30;0.20;;;7.90;99.90;;;;;;5137007;27;20431;-79
2022/11/22 12:01:33;;;;;;;0.40;0.30;;;7.80;99.90;;;;;;5136610;27;20467;-81
2022/11/22 12:04:03;;;;;;;0.47;0.40;;;7.90;99.90;;;;;;5136588;27;20494;-78
2022/11/22 12:06:32;;;;;;;1.03;0.40;;;7.90;99.90;;;;;;5136937;27;20446;-78
2022/11/22 12:09:00;;;;;;;0.30;0.30;;;7.90;99.90;;;;;;5136533;27;20443;-78
2022/11/22 12:11:36;;;;;;;0.40;0.30;;;7.90;99.90;;;;;;5136205;27;20435;-78
2022/11/22 12:14:04;;;;;;;0.30;0.30;;;7.80;99.90;;;;;;5136339;27;20993;-78
2022/11/22 12:16:38;;;;;;;0.30;0.30;;;7.80;99.90;;;;;;5137134;27;20442;-78
2022/11/22 12:19:18;;;;;;;0.40;0.33;;;7.90;99.90;;;;;;5136071;27;20474;-78
2022/11/22 12:21:54;;;;;;;0.30;0.20;;;7.80;99.90;;;;;;5136318;27;20816;-78
2022/11/22 12:24:24;;;;;;;0.30;0.20;;;7.90;99.90;;;;;;5136134;27;21041;-78
2022/11/22 12:26:51;;;;;;;0.40;0.40;;;8.00;99.90;;;;;;5135904;27;20929;-78
2022/11/22 12:29:18;;;;;;;0.30;0.30;;;8.00;99.90;;;;;;5136088;27;20525;-78
2022/11/22 12:31:51;;;;;;;6.70;0.40;;;8.00;99.90;;;;;;5135769;27;20795;-80
2022/11/22 12:34:24;;;;;;;0.30;0.20;;;8.00;99.90;;;;;;5135697;27;20973;-79
2022/11/22 12:36:58;;;;;;;0.30;0.30;;;8.00;99.90;;;;;;5135140;27;20427;-78
2022/11/22 12:39:27;;;;;;;0.30;0.20;;;8.00;99.90;;;;;;5135903;27;20496;-78
2022/11/22 12:42:00;;;;;;;0.80;0.53;;;8.00;99.90;;;;;;5136370;27;20490;-80
2022/11/22 12:44:29;;;;;;;0.30;0.20;;;8.00;99.90;;;;;;5136650;27;20474;-79
2022/11/22 12:47:00;;;;;;;0.30;0.30;;;8.00;99.90;;;;;;5135731;27;20442;-78
2022/11/22 12:49:34;;;;;;;0.30;0.30;;;8.00;99.90;;;;;;5135719;27;20816;-78
2022/11/22 12:52:11;;;;;;;0.37;0.27;;;8.00;99.90;;;;;;5135731;27;20430;-78
2022/11/22 12:54:42;;;;;;;0.40;0.30;;;7.90;99.90;;;;;;5135883;27;20469;-78
2022/11/22 12:57:17;;;;;;;0.30;0.20;;;8.00;99.90;;;;;;5135592;27;20428;-79
2022/11/22 12:59:54;;;;;;;0.30;0.30;;;7.80;99.90;;;;;;5135285;27;20913;-78
2022/11/22 13:02:29;;;;;;;0.40;0.40;;;7.70;99.90;;;;;;5135715;27;20617;-78
2022/11/22 13:05:03;;;;;;;0.30;0.20;;;7.70;99.90;;;;;;5135120;27;20462;-78
2022/11/22 13:07:45;;;;;;;0.60;0.30;;;7.70;99.90;;;;;;5135868;27;20431;-78
2022/11/22 13:10:26;;;;;;;0.30;0.20;;;7.60;99.90;;;;;;5135098;27;20925;-79
2022/11/22 13:12:55;;;;;;;0.30;0.20;;;7.70;99.90;;;;;;5135322;27;20429;-78
2022/11/22 13:15:28;;;;;;;0.30;0.20;;;7.70;99.90;;;;;;5134886;27;20467;-78
2022/11/22 13:17:55;;;;;;;0.30;0.27;;;7.60;99.90;;;;;;5135184;27;20473;-78
2022/11/22 13:20:26;;;;;;;0.30;0.30;;;7.60;99.90;;;;;;5135002;27;20481;-78